sensor_id;sensor_type;location;lat;lon;timestamp;temperature;humidity
8953;DHT22;4511;50.890;8.054;2023-04-01T00:01:28;9.10;99.90
8953;DHT22;4511;50.890;8.054;2023-04-01T00:03:55;9.10;99.90
8953;DHT22;4511;50.890;8.054;2023-04-01T00:06:23;9.10;99.90
8953;DHT22;4511;50.890;8.054;2023-04-01T00:08:50;9.00;99.90
8953;DHT22;4511;50.890;8.054;2023-04-01T00:11:18;9.00;99.90
8953;DHT22;4511;50.890;8.054;2023-04-01T00:13:46;9.00;99.90
8953;DHT22;4511;50.890;8.054;2023-04-01T00:16:14;9.00;99.90
8953;DHT22;4511;50.890;8.054;2023-04-01T00:18:41;9.00;99.90
8953;DHT22;4511;50.890;8.054;2023-04-01T00:21:08;9.00;99.90
8953;DHT22;4511;50.890;8.054;2023-04-01T00:23:34;8.90;99.90
8953;DHT22;4511;50.890;8.054;2023-04-01T00:26:02;9.00;99.90
8953;DHT22;4511;50.890;8.054;2023-04-01T00:28:29;8.90;99.90
8953;DHT22;4511;50.890;8.054;2023-04-01T00:30:57;8.90;99.90
8953;DHT22;4511;50.890;8.054;2023-04-01T00:33:24;9.00;99.90
8953;DHT22;4511;50.890;8.054;2023-04-01T00:35:52;9.00;99.90
8953;DHT22;4511;50.890;8.054;2023-04-01T00:38:19;8.90;99.90
8953;DHT22;4511;50.890;8.054;2023-04-01T00:40:47;9.00;99.90
8953;DHT22;4511;50.890;8.054;2023-04-01T00:43:15;9.00;99.90
8953;DHT22;4511;50.890;8.054;2023-04-01T00:45:45;8.90;99.90
8953;DHT22;4511;50.890;8.054;2023-04-01T00:48:16;8.90;99.90
8953;DHT22;4511;50.890;8.054;2023-04-01T00:50:46;8.90;99.90
8953;DHT22;4511;50.890;8.054;2023-04-01T00:53:14;8.90;99.90
8953;DHT22;4511;50.890;8.054;2023-04-01T00:55:45;8.90;99.90
8953;DHT22;4511;50.890;8.054;2023-04-01T00:58:16;8.90;99.90
8953;DHT22;4511;50.890;8.054;2023-04-01T01:00:46;8.80;99.90
8953;DHT22;4511;50.890;8.054;2023-04-01T01:03:14;8.90;99.90
8953;DHT22;4511;50.890;8.054;2023-04-01T01:06:01;8.90;99.90
8953;DHT22;4511;50.890;8.054;2023-04-01T01:08:39;8.90;99.90
8953;DHT22;4511;50.890;8.054;2023-04-01T01:11:10;8.80;99.90
8953;DHT22;4511;50.890;8.054;2023-04-01T01:13:45;8.80;99.90
8953;DHT22;4511;50.890;8.054;2023-04-01T01:16:20;8.80;99.90
8953;DHT22;4511;50.890;8.054;2023-04-01T01:18:54;8.80;99.90
8953;DHT22;4511;50.890;8.054;2023-04-01T01:27:17;8.80;99.90
8953;DHT22;4511;50.890;8.054;2023-04-01T01:33:05;8.70;99.90
8953;DHT22;4511;50.890;8.054;2023-04-01T01:35:36;8.70;99.90
8953;DHT22;4511;50.890;8.054;2023-04-01T01:38:07;8.70;99.90
8953;DHT22;4511;50.890;8.054;2023-04-01T01:40:36;8.70;99.90
8953;DHT22;4511;50.890;8.054;2023-04-01T01:43:08;8.70;99.90
8953;DHT22;4511;50.890;8.054;2023-04-01T01:45:40;8.70;99.90
8953;DHT22;4511;50.890;8.054;2023-04-01T01:48:10;8.70;99.90
8953;DHT22;4511;50.890;8.054;2023-04-01T01:50:40;8.70;99.90
8953;DHT22;4511;50.890;8.054;2023-04-01T01:53:09;8.70;99.90
8953;DHT22;4511;50.890;8.054;2023-04-01T01:55:38;8.60;99.90
8953;DHT22;4511;50.890;8.054;2023-04-01T01:58:09;8.60;99.90
8953;DHT22;4511;50.890;8.054;2023-04-01T02:00:39;8.60;99.90
8953;DHT22;4511;50.890;8.054;2023-04-01T02:03:07;8.60;99.90
8953;DHT22;4511;50.890;8.054;2023-04-01T02:05:34;8.70;99.90
8953;DHT22;4511;50.890;8.054;2023-04-01T02:08:07;8.60;99.90
8953;DHT22;4511;50.890;8.054;2023-04-01T02:10:37;8.60;99.90
8953;DHT22;4511;50.890;8.054;2023-04-01T02:13:10;8.60;99.90
8953;DHT22;4511;50.890;8.054;2023-04-01T02:15:44;8.60;99.90
8953;DHT22;4511;50.890;8.054;2023-04-01T02:18:13;8.60;99.90
8953;DHT22;4511;50.890;8.054;2023-04-01T02:20:41;8.60;99.90
8953;DHT22;4511;50.890;8.054;2023-04-01T02:23:11;8.60;99.90
8953;DHT22;4511;50.890;8.054;2023-04-01T02:25:39;8.60;99.90
8953;DHT22;4511;50.890;8.054;2023-04-01T02:28:09;8.60;99.90
8953;DHT22;4511;50.890;8.054;2023-04-01T02:30:38;8.60;99.90
8953;DHT22;4511;50.890;8.054;2023-04-01T02:33:06;8.60;99.90
8953;DHT22;4511;50.890;8.054;2023-04-01T02:35:34;8.60;99.90
8953;DHT22;4511;50.890;8.054;2023-04-01T02:38:02;8.60;99.90
8953;DHT22;4511;50.890;8.054;2023-04-01T02:40:41;8.60;99.90
8953;DHT22;4511;50.890;8.054;2023-04-01T02:43:08;8.60;99.90
8953;DHT22;4511;50.890;8.054;2023-04-01T02:45:35;8.60;99.90
8953;DHT22;4511;50.890;8.054;2023-04-01T02:48:02;8.60;99.90
8953;DHT22;4511;50.890;8.054;2023-04-01T02:50:30;8.60;99.90
8953;DHT22;4511;50.890;8.054;2023-04-01T02:52:56;8.60;99.90
8953;DHT22;4511;50.890;8.054;2023-04-01T02:55:23;8.60;99.90
8953;DHT22;4511;50.890;8.054;2023-04-01T02:57:51;8.60;99.90
8953;DHT22;4511;50.890;8.054;2023-04-01T03:00:19;8.50;99.90
8953;DHT22;4511;50.890;8.054;2023-04-01T03:02:45;8.50;99.90
8953;DHT22;4511;50.890;8.054;2023-04-01T03:05:12;8.50;99.90
8953;DHT22;4511;50.890;8.054;2023-04-01T03:07:39;8.50;99.90
8953;DHT22;4511;50.890;8.054;2023-04-01T03:10:07;8.50;99.90
8953;DHT22;4511;50.890;8.054;2023-04-01T03:12:34;8.50;99.90
8953;DHT22;4511;50.890;8.054;2023-04-01T03:15:03;8.50;99.90
8953;DHT22;4511;50.890;8.054;2023-04-01T03:17:30;8.50;99.90
8953;DHT22;4511;50.890;8.054;2023-04-01T03:19:57;8.50;99.90
8953;DHT22;4511;50.890;8.054;2023-04-01T03:22:23;8.50;99.90
8953;DHT22;4511;50.890;8.054;2023-04-01T03:24:51;8.40;99.90
8953;DHT22;4511;50.890;8.054;2023-04-01T03:27:17;8.40;99.90
8953;DHT22;4511;50.890;8.054;2023-04-01T03:29:44;8.40;99.90
8953;DHT22;4511;50.890;8.054;2023-04-01T03:32:12;8.40;99.90
8953;DHT22;4511;50.890;8.054;2023-04-01T03:34:39;8.50;99.90
8953;DHT22;4511;50.890;8.054;2023-04-01T03:37:06;8.40;99.90
8953;DHT22;4511;50.890;8.054;2023-04-01T03:39:33;8.40;99.90
8953;DHT22;4511;50.890;8.054;2023-04-01T03:42:00;8.40;99.90
8953;DHT22;4511;50.890;8.054;2023-04-01T03:44:30;8.40;99.90
8953;DHT22;4511;50.890;8.054;2023-04-01T03:46:57;8.40;99.90
8953;DHT22;4511;50.890;8.054;2023-04-01T03:49:25;8.40;99.90
8953;DHT22;4511;50.890;8.054;2023-04-01T03:51:52;8.40;99.90
8953;DHT22;4511;50.890;8.054;2023-04-01T03:54:19;8.40;99.90
8953;DHT22;4511;50.890;8.054;2023-04-01T03:56:46;8.40;99.90
8953;DHT22;4511;50.890;8.054;2023-04-01T03:59:13;8.40;99.90
8953;DHT22;4511;50.890;8.054;2023-04-01T04:01:40;8.30;99.90
8953;DHT22;4511;50.890;8.054;2023-04-01T04:04:07;8.40;99.90
8953;DHT22;4511;50.890;8.054;2023-04-01T04:06:38;8.30;99.90
8953;DHT22;4511;50.890;8.054;2023-04-01T04:09:05;8.40;99.90
8953;DHT22;4511;50.890;8.054;2023-04-01T04:11:32;8.30;99.90
8953;DHT22;4511;50.890;8.054;2023-04-01T04:13:58;8.40;99.90
8953;DHT22;4511;50.890;8.054;2023-04-01T04:16:25;8.30;99.90
8953;DHT22;4511;50.890;8.054;2023-04-01T04:18:52;8.30;99.90
8953;DHT22;4511;50.890;8.054;2023-04-01T04:21:19;8.30;99.90
8953;DHT22;4511;50.890;8.054;2023-04-01T04:23:47;8.40;99.90
8953;DHT22;4511;50.890;8.054;2023-04-01T04:26:15;8.30;99.90
8953;DHT22;4511;50.890;8.054;2023-04-01T04:28:42;8.40;99.90
8953;DHT22;4511;50.890;8.054;2023-04-01T04:31:09;8.40;99.90
8953;DHT22;4511;50.890;8.054;2023-04-01T04:33:36;8.30;99.90
8953;DHT22;4511;50.890;8.054;2023-04-01T04:36:04;8.30;99.90
8953;DHT22;4511;50.890;8.054;2023-04-01T04:38:30;8.40;99.90
8953;DHT22;4511;50.890;8.054;2023-04-01T04:40:59;8.40;99.90
8953;DHT22;4511;50.890;8.054;2023-04-01T04:43:25;8.30;99.90
8953;DHT22;4511;50.890;8.054;2023-04-01T04:45:52;8.30;99.90
8953;DHT22;4511;50.890;8.054;2023-04-01T04:48:19;8.30;99.90
8953;DHT22;4511;50.890;8.054;2023-04-01T04:50:47;8.30;99.90
8953;DHT22;4511;50.890;8.054;2023-04-01T04:53:15;8.30;99.90
8953;DHT22;4511;50.890;8.054;2023-04-01T04:55:45;8.30;99.90
8953;DHT22;4511;50.890;8.054;2023-04-01T04:58:13;8.40;99.90
8953;DHT22;4511;50.890;8.054;2023-04-01T05:00:40;8.30;99.90
8953;DHT22;4511;50.890;8.054;2023-04-01T05:03:07;8.30;99.90
8953;DHT22;4511;50.890;8.054;2023-04-01T05:05:34;8.30;99.90
8953;DHT22;4511;50.890;8.054;2023-04-01T05:08:01;8.30;99.90
8953;DHT22;4511;50.890;8.054;2023-04-01T05:10:28;8.30;99.90
8953;DHT22;4511;50.890;8.054;2023-04-01T05:12:56;8.30;99.90
8953;DHT22;4511;50.890;8.054;2023-04-01T05:15:25;8.30;99.90
8953;DHT22;4511;50.890;8.054;2023-04-01T05:17:52;8.30;99.90
8953;DHT22;4511;50.890;8.054;2023-04-01T05:20:18;8.30;99.90
8953;DHT22;4511;50.890;8.054;2023-04-01T05:22:45;8.30;99.90
8953;DHT22;4511;50.890;8.054;2023-04-01T05:25:12;8.30;99.90
8953;DHT22;4511;50.890;8.054;2023-04-01T05:27:39;8.40;99.90
8953;DHT22;4511;50.890;8.054;2023-04-01T05:30:06;8.30;99.90
8953;DHT22;4511;50.890;8.054;2023-04-01T05:32:35;8.40;99.90
8953;DHT22;4511;50.890;8.054;2023-04-01T05:35:01;8.30;99.90
8953;DHT22;4511;50.890;8.054;2023-04-01T05:37:28;8.30;99.90
8953;DHT22;4511;50.890;8.054;2023-04-01T05:39:55;8.30;99.90
8953;DHT22;4511;50.890;8.054;2023-04-01T05:42:24;8.30;99.90
8953;DHT22;4511;50.890;8.054;2023-04-01T05:44:51;8.30;99.90
8953;DHT22;4511;50.890;8.054;2023-04-01T05:47:17;8.40;99.90
8953;DHT22;4511;50.890;8.054;2023-04-01T05:49:45;8.30;99.90
8953;DHT22;4511;50.890;8.054;2023-04-01T05:52:12;8.30;99.90
8953;DHT22;4511;50.890;8.054;2023-04-01T05:54:39;8.30;99.90
8953;DHT22;4511;50.890;8.054;2023-04-01T05:57:06;8.40;99.90
8953;DHT22;4511;50.890;8.054;2023-04-01T05:59:32;8.30;99.90
8953;DHT22;4511;50.890;8.054;2023-04-01T06:02:00;8.30;99.90
8953;DHT22;4511;50.890;8.054;2023-04-01T06:04:34;8.40;99.90
8953;DHT22;4511;50.890;8.054;2023-04-01T06:07:11;8.30;99.90
8953;DHT22;4511;50.890;8.054;2023-04-01T06:09:38;8.30;99.90
8953;DHT22;4511;50.890;8.054;2023-04-01T06:12:22;8.40;99.90
8953;DHT22;4511;50.890;8.054;2023-04-01T06:15:01;8.40;99.90
8953;DHT22;4511;50.890;8.054;2023-04-01T06:17:37;8.40;99.90
8953;DHT22;4511;50.890;8.054;2023-04-01T06:20:13;8.40;99.90
8953;DHT22;4511;50.890;8.054;2023-04-01T06:23:01;8.50;99.90
8953;DHT22;4511;50.890;8.054;2023-04-01T06:25:45;8.50;99.90
8953;DHT22;4511;50.890;8.054;2023-04-01T06:28:41;8.40;99.90
8953;DHT22;4511;50.890;8.054;2023-04-01T06:31:26;8.50;99.90
8953;DHT22;4511;50.890;8.054;2023-04-01T06:34:14;8.50;99.90
8953;DHT22;4511;50.890;8.054;2023-04-01T06:37:05;8.50;99.90
8953;DHT22;4511;50.890;8.054;2023-04-01T06:42:49;8.60;99.90
8953;DHT22;4511;50.890;8.054;2023-04-01T06:45:30;8.60;99.90
8953;DHT22;4511;50.890;8.054;2023-04-01T06:48:12;8.70;99.90
8953;DHT22;4511;50.890;8.054;2023-04-01T06:50:47;8.70;99.90
8953;DHT22;4511;50.890;8.054;2023-04-01T06:53:19;8.70;99.90
8953;DHT22;4511;50.890;8.054;2023-04-01T06:55:52;8.70;99.90
8953;DHT22;4511;50.890;8.054;2023-04-01T06:58:23;8.70;99.90
8953;DHT22;4511;50.890;8.054;2023-04-01T07:00:54;8.80;99.90
8953;DHT22;4511;50.890;8.054;2023-04-01T07:03:29;8.70;99.90
8953;DHT22;4511;50.890;8.054;2023-04-01T07:06:01;8.70;99.90
8953;DHT22;4511;50.890;8.054;2023-04-01T07:08:29;8.70;99.90
8953;DHT22;4511;50.890;8.054;2023-04-01T07:11:01;8.70;99.90
8953;DHT22;4511;50.890;8.054;2023-04-01T07:13:32;8.80;99.90
8953;DHT22;4511;50.890;8.054;2023-04-01T07:16:10;8.80;99.90
8953;DHT22;4511;50.890;8.054;2023-04-01T07:18:42;8.70;99.90
8953;DHT22;4511;50.890;8.054;2023-04-01T07:21:20;8.80;99.90
8953;DHT22;4511;50.890;8.054;2023-04-01T07:23:49;8.70;99.90
8953;DHT22;4511;50.890;8.054;2023-04-01T07:26:20;8.70;99.90
8953;DHT22;4511;50.890;8.054;2023-04-01T07:28:48;8.80;99.90
8953;DHT22;4511;50.890;8.054;2023-04-01T07:31:22;8.80;99.90
8953;DHT22;4511;50.890;8.054;2023-04-01T07:33:58;8.70;99.90
8953;DHT22;4511;50.890;8.054;2023-04-01T07:36:32;8.70;99.90
8953;DHT22;4511;50.890;8.054;2023-04-01T07:39:07;8.70;99.90
8953;DHT22;4511;50.890;8.054;2023-04-01T07:41:45;8.70;99.90
8953;DHT22;4511;50.890;8.054;2023-04-01T07:44:23;8.80;99.90
8953;DHT22;4511;50.890;8.054;2023-04-01T07:47:02;8.90;99.90
8953;DHT22;4511;50.890;8.054;2023-04-01T07:49:37;8.90;99.90
8953;DHT22;4511;50.890;8.054;2023-04-01T07:52:12;8.90;99.90
8953;DHT22;4511;50.890;8.054;2023-04-01T07:54:46;8.90;99.90
8953;DHT22;4511;50.890;8.054;2023-04-01T07:57:19;8.90;99.90
8953;DHT22;4511;50.890;8.054;2023-04-01T07:59:57;9.00;99.90
8953;DHT22;4511;50.890;8.054;2023-04-01T08:02:42;8.90;99.90
8953;DHT22;4511;50.890;8.054;2023-04-01T08:05:19;8.90;99.90
8953;DHT22;4511;50.890;8.054;2023-04-01T08:07:57;8.90;99.90
8953;DHT22;4511;50.890;8.054;2023-04-01T08:10:29;8.90;99.90
8953;DHT22;4511;50.890;8.054;2023-04-01T08:13:06;9.00;99.90
8953;DHT22;4511;50.890;8.054;2023-04-01T08:15:41;9.00;99.90
8953;DHT22;4511;50.890;8.054;2023-04-01T08:18:21;9.00;99.90
8953;DHT22;4511;50.890;8.054;2023-04-01T08:20:56;9.00;99.90
8953;DHT22;4511;50.890;8.054;2023-04-01T08:23:27;9.00;99.90
8953;DHT22;4511;50.890;8.054;2023-04-01T08:25:58;9.10;99.90
8953;DHT22;4511;50.890;8.054;2023-04-01T08:28:33;9.00;99.90
8953;DHT22;4511;50.890;8.054;2023-04-01T08:31:04;9.10;99.90
8953;DHT22;4511;50.890;8.054;2023-04-01T08:33:32;9.10;99.90
8953;DHT22;4511;50.890;8.054;2023-04-01T08:36:03;9.20;99.90
8953;DHT22;4511;50.890;8.054;2023-04-01T08:38:34;9.20;99.90
8953;DHT22;4511;50.890;8.054;2023-04-01T08:41:23;9.10;99.90
8953;DHT22;4511;50.890;8.054;2023-04-01T08:47:25;9.20;99.90
8953;DHT22;4511;50.890;8.054;2023-04-01T08:50:23;9.20;99.90
8953;DHT22;4511;50.890;8.054;2023-04-01T08:53:00;9.40;99.90
8953;DHT22;4511;50.890;8.054;2023-04-01T08:55:47;9.30;99.90
8953;DHT22;4511;50.890;8.054;2023-04-01T08:58:42;9.30;99.90
8953;DHT22;4511;50.890;8.054;2023-04-01T09:01:21;9.40;99.90
8953;DHT22;4511;50.890;8.054;2023-04-01T09:04:05;9.40;99.90
8953;DHT22;4511;50.890;8.054;2023-04-01T09:06:48;9.40;99.90
8953;DHT22;4511;50.890;8.054;2023-04-01T09:12:32;9.50;99.90
8953;DHT22;4511;50.890;8.054;2023-04-01T09:15:41;9.40;99.90
8953;DHT22;4511;50.890;8.054;2023-04-01T09:18:34;9.50;99.90
8953;DHT22;4511;50.890;8.054;2023-04-01T09:21:19;9.50;99.90
8953;DHT22;4511;50.890;8.054;2023-04-01T09:27:00;9.70;99.90
8953;DHT22;4511;50.890;8.054;2023-04-01T09:29:49;9.70;99.90
8953;DHT22;4511;50.890;8.054;2023-04-01T09:32:39;9.70;99.90
8953;DHT22;4511;50.890;8.054;2023-04-01T09:35:21;9.70;99.90
8953;DHT22;4511;50.890;8.054;2023-04-01T09:37:56;9.80;99.90
8953;DHT22;4511;50.890;8.054;2023-04-01T09:40:33;9.80;99.90
8953;DHT22;4511;50.890;8.054;2023-04-01T09:43:23;9.90;99.90
8953;DHT22;4511;50.890;8.054;2023-04-01T09:46:16;9.90;99.90
8953;DHT22;4511;50.890;8.054;2023-04-01T09:49:10;9.80;99.90
8953;DHT22;4511;50.890;8.054;2023-04-01T09:51:53;9.70;99.90
8953;DHT22;4511;50.890;8.054;2023-04-01T09:54:35;9.70;99.90
8953;DHT22;4511;50.890;8.054;2023-04-01T09:57:28;9.60;99.90
8953;DHT22;4511;50.890;8.054;2023-04-01T10:00:28;9.50;99.90
8953;DHT22;4511;50.890;8.054;2023-04-01T10:09:42;9.70;99.90
8953;DHT22;4511;50.890;8.054;2023-04-01T10:15:39;9.80;99.90
8953;DHT22;4511;50.890;8.054;2023-04-01T10:18:41;9.80;99.90
8953;DHT22;4511;50.890;8.054;2023-04-01T10:21:45;9.80;99.90
8953;DHT22;4511;50.890;8.054;2023-04-01T10:27:26;9.80;99.90
8953;DHT22;4511;50.890;8.054;2023-04-01T10:30:37;9.80;99.90
8953;DHT22;4511;50.890;8.054;2023-04-01T10:33:32;9.70;99.90
8953;DHT22;4511;50.890;8.054;2023-04-01T10:36:33;9.80;99.90
8953;DHT22;4511;50.890;8.054;2023-04-01T10:39:37;9.90;99.90
8953;DHT22;4511;50.890;8.054;2023-04-01T10:45:35;9.90;99.90
8953;DHT22;4511;50.890;8.054;2023-04-01T10:48:17;10.00;99.90
8953;DHT22;4511;50.890;8.054;2023-04-01T10:51:09;10.00;99.90
8953;DHT22;4511;50.890;8.054;2023-04-01T10:53:46;9.90;99.90
8953;DHT22;4511;50.890;8.054;2023-04-01T11:05:56;9.80;99.90
8953;DHT22;4511;50.890;8.054;2023-04-01T11:09:09;9.70;99.90
8953;DHT22;4511;50.890;8.054;2023-04-01T11:12:09;9.90;99.90
8953;DHT22;4511;50.890;8.054;2023-04-01T11:15:10;9.90;99.90
8953;DHT22;4511;50.890;8.054;2023-04-01T11:18:23;9.70;99.90
8953;DHT22;4511;50.890;8.054;2023-04-01T11:24:21;9.90;99.90
8953;DHT22;4511;50.890;8.054;2023-04-01T11:27:08;10.00;99.90
8953;DHT22;4511;50.890;8.054;2023-04-01T11:30:02;9.90;99.90
8953;DHT22;4511;50.890;8.054;2023-04-01T11:32:43;9.90;99.90
8953;DHT22;4511;50.890;8.054;2023-04-01T11:38:52;9.90;99.90
8953;DHT22;4511;50.890;8.054;2023-04-01T11:41:27;9.80;99.90
8953;DHT22;4511;50.890;8.054;2023-04-01T11:44:16;9.70;99.90
8953;DHT22;4511;50.890;8.054;2023-04-01T11:49:50;9.60;99.90
8953;DHT22;4511;50.890;8.054;2023-04-01T11:52:35;9.60;99.90
8953;DHT22;4511;50.890;8.054;2023-04-01T11:55:22;9.70;99.90
8953;DHT22;4511;50.890;8.054;2023-04-01T11:58:22;9.60;99.90
8953;DHT22;4511;50.890;8.054;2023-04-01T12:01:13;9.70;99.90
8953;DHT22;4511;50.890;8.054;2023-04-01T12:04:06;9.70;99.90
8953;DHT22;4511;50.890;8.054;2023-04-01T12:06:44;9.70;99.90
8953;DHT22;4511;50.890;8.054;2023-04-01T12:09:20;9.60;99.90
8953;DHT22;4511;50.890;8.054;2023-04-01T12:12:02;9.60;99.90
8953;DHT22;4511;50.890;8.054;2023-04-01T12:14:39;9.90;99.90
8953;DHT22;4511;50.890;8.054;2023-04-01T12:17:16;9.90;99.90
8953;DHT22;4511;50.890;8.054;2023-04-01T12:19:53;9.90;99.90
8953;DHT22;4511;50.890;8.054;2023-04-01T12:22:30;9.90;99.90
8953;DHT22;4511;50.890;8.054;2023-04-01T12:25:11;10.00;99.90
8953;DHT22;4511;50.890;8.054;2023-04-01T12:27:53;10.00;99.90
8953;DHT22;4511;50.890;8.054;2023-04-01T12:33:27;9.90;99.90
8953;DHT22;4511;50.890;8.054;2023-04-01T12:36:06;9.80;99.90
8953;DHT22;4511;50.890;8.054;2023-04-01T12:38:43;9.80;99.90
8953;DHT22;4511;50.890;8.054;2023-04-01T12:41:21;9.80;99.90
8953;DHT22;4511;50.890;8.054;2023-04-01T12:44:07;9.80;99.90
8953;DHT22;4511;50.890;8.054;2023-04-01T12:46:47;9.90;99.90
8953;DHT22;4511;50.890;8.054;2023-04-01T12:49:27;9.90;99.90
8953;DHT22;4511;50.890;8.054;2023-04-01T12:52:05;10.00;99.90
8953;DHT22;4511;50.890;8.054;2023-04-01T13:01:14;9.90;99.90
8953;DHT22;4511;50.890;8.054;2023-04-01T13:06:57;10.00;99.90
8953;DHT22;4511;50.890;8.054;2023-04-01T13:09:33;9.90;99.90
8953;DHT22;4511;50.890;8.054;2023-04-01T13:12:36;10.00;99.90
8953;DHT22;4511;50.890;8.054;2023-04-01T13:15:16;10.00;99.90
8953;DHT22;4511;50.890;8.054;2023-04-01T13:17:52;9.80;99.90
8953;DHT22;4511;50.890;8.054;2023-04-01T13:20:29;9.80;99.90
8953;DHT22;4511;50.890;8.054;2023-04-01T13:23:07;9.80;99.90
8953;DHT22;4511;50.890;8.054;2023-04-01T13:25:39;9.70;99.90
8953;DHT22;4511;50.890;8.054;2023-04-01T13:28:17;9.80;99.90
8953;DHT22;4511;50.890;8.054;2023-04-01T13:30:51;9.90;99.90
8953;DHT22;4511;50.890;8.054;2023-04-01T13:33:27;9.80;99.90
8953;DHT22;4511;50.890;8.054;2023-04-01T13:36:06;9.80;99.90
8953;DHT22;4511;50.890;8.054;2023-04-01T13:39:15;9.90;99.90
8953;DHT22;4511;50.890;8.054;2023-04-01T13:41:53;10.00;99.90
8953;DHT22;4511;50.890;8.054;2023-04-01T13:44:28;10.20;99.90
8953;DHT22;4511;50.890;8.054;2023-04-01T13:47:17;10.40;99.90
8953;DHT22;4511;50.890;8.054;2023-04-01T13:50:05;10.50;99.90
8953;DHT22;4511;50.890;8.054;2023-04-01T13:53:00;10.50;99.90
8953;DHT22;4511;50.890;8.054;2023-04-01T13:55:43;10.60;99.90
8953;DHT22;4511;50.890;8.054;2023-04-01T13:58:38;10.80;99.90
8953;DHT22;4511;50.890;8.054;2023-04-01T14:01:12;10.70;99.90
8953;DHT22;4511;50.890;8.054;2023-04-01T14:04:03;10.80;99.90
8953;DHT22;4511;50.890;8.054;2023-04-01T14:06:35;10.70;99.90
8953;DHT22;4511;50.890;8.054;2023-04-01T14:09:20;10.60;99.90
8953;DHT22;4511;50.890;8.054;2023-04-01T14:11:55;10.40;99.90
8953;DHT22;4511;50.890;8.054;2023-04-01T14:14:32;10.30;99.90
8953;DHT22;4511;50.890;8.054;2023-04-01T14:17:10;10.30;99.90
8953;DHT22;4511;50.890;8.054;2023-04-01T14:19:53;10.20;99.90
8953;DHT22;4511;50.890;8.054;2023-04-01T14:22:31;10.20;99.90
8953;DHT22;4511;50.890;8.054;2023-04-01T14:25:33;10.00;99.90
8953;DHT22;4511;50.890;8.054;2023-04-01T14:28:13;10.30;99.90
8953;DHT22;4511;50.890;8.054;2023-04-01T14:33:45;10.10;99.90
8953;DHT22;4511;50.890;8.054;2023-04-01T14:36:43;10.10;99.90
8953;DHT22;4511;50.890;8.054;2023-04-01T14:39:33;10.00;99.90
8953;DHT22;4511;50.890;8.054;2023-04-01T14:42:18;9.90;99.90
8953;DHT22;4511;50.890;8.054;2023-04-01T14:45:06;9.90;99.90
8953;DHT22;4511;50.890;8.054;2023-04-01T14:47:44;9.90;99.90
8953;DHT22;4511;50.890;8.054;2023-04-01T14:50:15;10.00;99.90
8953;DHT22;4511;50.890;8.054;2023-04-01T14:52:49;10.10;99.90
8953;DHT22;4511;50.890;8.054;2023-04-01T14:55:29;10.10;99.90
8953;DHT22;4511;50.890;8.054;2023-04-01T14:58:09;10.20;99.90
8953;DHT22;4511;50.890;8.054;2023-04-01T15:00:49;10.30;99.90
8953;DHT22;4511;50.890;8.054;2023-04-01T15:03:22;10.20;99.90
8953;DHT22;4511;50.890;8.054;2023-04-01T15:05:55;10.20;99.90
8953;DHT22;4511;50.890;8.054;2023-04-01T15:08:25;10.20;99.90
8953;DHT22;4511;50.890;8.054;2023-04-01T15:11:16;10.10;99.90
8953;DHT22;4511;50.890;8.054;2023-04-01T15:16:47;10.20;99.90
8953;DHT22;4511;50.890;8.054;2023-04-01T15:19:24;10.10;99.90
8953;DHT22;4511;50.890;8.054;2023-04-01T15:22:25;10.10;99.90
8953;DHT22;4511;50.890;8.054;2023-04-01T15:25:05;10.00;99.90
8953;DHT22;4511;50.890;8.054;2023-04-01T15:27:43;10.00;99.90
8953;DHT22;4511;50.890;8.054;2023-04-01T15:30:30;9.90;99.90
8953;DHT22;4511;50.890;8.054;2023-04-01T15:36:04;10.10;99.90
8953;DHT22;4511;50.890;8.054;2023-04-01T15:38:38;10.10;99.90
8953;DHT22;4511;50.890;8.054;2023-04-01T15:41:14;10.10;99.90
8953;DHT22;4511;50.890;8.054;2023-04-01T15:43:44;10.10;99.90
8953;DHT22;4511;50.890;8.054;2023-04-01T15:46:30;10.00;99.90
8953;DHT22;4511;50.890;8.054;2023-04-01T15:49:08;10.00;99.90
8953;DHT22;4511;50.890;8.054;2023-04-01T15:51:56;10.00;99.90
8953;DHT22;4511;50.890;8.054;2023-04-01T15:54:31;10.00;99.90
8953;DHT22;4511;50.890;8.054;2023-04-01T15:57:12;10.00;99.90
8953;DHT22;4511;50.890;8.054;2023-04-01T15:59:56;9.90;99.90
8953;DHT22;4511;50.890;8.054;2023-04-01T16:02:31;10.00;99.90
8953;DHT22;4511;50.890;8.054;2023-04-01T16:05:05;9.90;99.90
8953;DHT22;4511;50.890;8.054;2023-04-01T16:07:48;9.90;99.90
8953;DHT22;4511;50.890;8.054;2023-04-01T16:10:27;9.90;99.90
8953;DHT22;4511;50.890;8.054;2023-04-01T16:13:04;10.00;99.90
8953;DHT22;4511;50.890;8.054;2023-04-01T16:15:47;10.00;99.90
8953;DHT22;4511;50.890;8.054;2023-04-01T16:18:44;10.00;99.90
8953;DHT22;4511;50.890;8.054;2023-04-01T16:21:27;10.00;99.90
8953;DHT22;4511;50.890;8.054;2023-04-01T16:24:08;9.90;99.90
8953;DHT22;4511;50.890;8.054;2023-04-01T16:26:39;9.90;99.90
8953;DHT22;4511;50.890;8.054;2023-04-01T16:29:11;10.00;99.90
8953;DHT22;4511;50.890;8.054;2023-04-01T16:31:46;9.90;99.90
8953;DHT22;4511;50.890;8.054;2023-04-01T16:34:18;9.90;99.90
8953;DHT22;4511;50.890;8.054;2023-04-01T16:36:49;9.90;99.90
8953;DHT22;4511;50.890;8.054;2023-04-01T16:39:27;9.80;99.90
8953;DHT22;4511;50.890;8.054;2023-04-01T16:42:13;9.70;99.90
8953;DHT22;4511;50.890;8.054;2023-04-01T16:44:50;9.80;99.90
8953;DHT22;4511;50.890;8.054;2023-04-01T16:47:21;9.80;99.90
8953;DHT22;4511;50.890;8.054;2023-04-01T16:49:53;9.80;99.90
8953;DHT22;4511;50.890;8.054;2023-04-01T16:52:40;9.70;99.90
8953;DHT22;4511;50.890;8.054;2023-04-01T16:55:15;9.70;99.90
8953;DHT22;4511;50.890;8.054;2023-04-01T16:57:48;9.70;99.90
8953;DHT22;4511;50.890;8.054;2023-04-01T17:00:22;9.80;99.90
8953;DHT22;4511;50.890;8.054;2023-04-01T17:03:03;9.80;99.90
8953;DHT22;4511;50.890;8.054;2023-04-01T17:05:42;9.90;99.90
8953;DHT22;4511;50.890;8.054;2023-04-01T17:08:21;9.80;99.90
8953;DHT22;4511;50.890;8.054;2023-04-01T17:10:53;9.80;99.90
8953;DHT22;4511;50.890;8.054;2023-04-01T17:13:35;9.80;99.90
8953;DHT22;4511;50.890;8.054;2023-04-01T17:16:37;9.90;99.90
8953;DHT22;4511;50.890;8.054;2023-04-01T17:19:14;9.80;99.90
8953;DHT22;4511;50.890;8.054;2023-04-01T17:21:57;9.80;99.90
8953;DHT22;4511;50.890;8.054;2023-04-01T17:24:46;9.60;99.90
8953;DHT22;4511;50.890;8.054;2023-04-01T17:27:27;9.70;99.90
8953;DHT22;4511;50.890;8.054;2023-04-01T17:30:06;9.70;99.90
8953;DHT22;4511;50.890;8.054;2023-04-01T17:32:47;9.70;99.90
8953;DHT22;4511;50.890;8.054;2023-04-01T17:35:22;9.70;99.90
8953;DHT22;4511;50.890;8.054;2023-04-01T17:37:59;9.70;99.90
8953;DHT22;4511;50.890;8.054;2023-04-01T17:40:38;9.70;99.90
8953;DHT22;4511;50.890;8.054;2023-04-01T17:43:15;9.70;99.90
8953;DHT22;4511;50.890;8.054;2023-04-01T17:45:52;9.70;99.90
8953;DHT22;4511;50.890;8.054;2023-04-01T17:48:30;9.70;99.90
8953;DHT22;4511;50.890;8.054;2023-04-01T17:51:30;9.70;99.90
8953;DHT22;4511;50.890;8.054;2023-04-01T17:54:05;9.70;99.90
8953;DHT22;4511;50.890;8.054;2023-04-01T17:56:45;9.70;99.90
8953;DHT22;4511;50.890;8.054;2023-04-01T17:59:20;9.60;99.90
8953;DHT22;4511;50.890;8.054;2023-04-01T18:01:59;9.60;99.90
8953;DHT22;4511;50.890;8.054;2023-04-01T18:04:47;9.60;99.90
8953;DHT22;4511;50.890;8.054;2023-04-01T18:07:40;9.60;99.90
8953;DHT22;4511;50.890;8.054;2023-04-01T18:10:26;9.60;99.90
8953;DHT22;4511;50.890;8.054;2023-04-01T18:13:15;9.60;99.90
8953;DHT22;4511;50.890;8.054;2023-04-01T18:15:54;9.70;99.90
8953;DHT22;4511;50.890;8.054;2023-04-01T18:18:37;9.60;99.90
8953;DHT22;4511;50.890;8.054;2023-04-01T18:21:15;9.50;99.90
8953;DHT22;4511;50.890;8.054;2023-04-01T18:23:51;9.50;99.90
8953;DHT22;4511;50.890;8.054;2023-04-01T18:26:23;9.50;99.90
8953;DHT22;4511;50.890;8.054;2023-04-01T18:28:54;9.50;99.90
8953;DHT22;4511;50.890;8.054;2023-04-01T18:31:24;9.60;99.90
8953;DHT22;4511;50.890;8.054;2023-04-01T18:33:59;9.60;99.90